sensor_id;sensor_type;location;lat;lon;timestamp;noise_LAeq;noise_LA_min;noise_LA_max;noise_LA01;noise_LA95
61095;Laerm;20450;49.074;9.158;2023-03-01T00:01:15;38.28;34.69;41.82;;
61095;Laerm;20450;49.074;9.158;2023-03-01T00:03:43;38.29;34.31;41.68;;
61095;Laerm;20450;49.074;9.158;2023-03-01T00:06:10;37.99;33.44;40.80;;
61095;Laerm;20450;49.074;9.158;2023-03-01T00:08:37;37.96;32.93;41.14;;
61095;Laerm;20450;49.074;9.158;2023-03-01T00:11:07;38.58;33.90;43.81;;
61095;Laerm;20450;49.074;9.158;2023-03-01T00:13:35;38.22;33.90;41.96;;
61095;Laerm;20450;49.074;9.158;2023-03-01T00:16:06;39.01;34.69;46.20;;
61095;Laerm;20450;49.074;9.158;2023-03-01T00:18:34;39.94;34.69;46.25;;
61095;Laerm;20450;49.074;9.158;2023-03-01T00:21:02;37.87;34.31;40.43;;
61095;Laerm;20450;49.074;9.158;2023-03-01T00:23:28;37.97;32.93;40.98;;
61095;Laerm;20450;49.074;9.158;2023-03-01T00:25:55;37.95;34.31;41.61;;
61095;Laerm;20450;49.074;9.158;2023-03-01T00:28:22;37.86;33.55;41.53;;
61095;Laerm;20450;49.074;9.158;2023-03-01T00:30:49;37.77;33.90;40.33;;
61095;Laerm;20450;49.074;9.158;2023-03-01T00:33:18;38.29;33.44;43.81;;
61095;Laerm;20450;49.074;9.158;2023-03-01T00:35:45;37.86;33.44;40.62;;
61095;Laerm;20450;49.074;9.158;2023-03-01T00:38:12;38.39;34.31;43.24;;
61095;Laerm;20450;49.074;9.158;2023-03-01T00:40:39;38.20;34.31;42.41;;
61095;Laerm;20450;49.074;9.158;2023-03-01T00:43:06;38.01;33.44;40.80;;
61095;Laerm;20450;49.074;9.158;2023-03-01T00:45:33;38.42;34.31;42.53;;
61095;Laerm;20450;49.074;9.158;2023-03-01T00:48:00;37.95;33.55;42.22;;
61095;Laerm;20450;49.074;9.158;2023-03-01T00:50:29;39.31;34.31;43.44;;
61095;Laerm;20450;49.074;9.158;2023-03-01T00:52:56;38.20;33.44;41.46;;
61095;Laerm;20450;49.074;9.158;2023-03-01T00:55:24;38.58;34.31;43.77;;
61095;Laerm;20450;49.074;9.158;2023-03-01T00:57:51;37.98;33.90;41.82;;
61095;Laerm;20450;49.074;9.158;2023-03-01T01:00:19;37.94;32.93;40.53;;
61095;Laerm;20450;49.074;9.158;2023-03-01T01:02:48;38.09;33.44;42.98;;
61095;Laerm;20450;49.074;9.158;2023-03-01T01:05:15;38.06;33.44;41.38;;
61095;Laerm;20450;49.074;9.158;2023-03-01T01:07:43;38.81;33.90;44.31;;
61095;Laerm;20450;49.074;9.158;2023-03-01T01:10:11;39.25;34.31;42.71;;
61095;Laerm;20450;49.074;9.158;2023-03-01T01:12:37;38.43;34.31;42.65;;
61095;Laerm;20450;49.074;9.158;2023-03-01T01:15:06;38.07;32.93;40.98;;
61095;Laerm;20450;49.074;9.158;2023-03-01T01:17:33;38.00;32.35;40.71;;
61095;Laerm;20450;49.074;9.158;2023-03-01T01:20:01;38.39;33.90;42.82;;
61095;Laerm;20450;49.074;9.158;2023-03-01T01:22:28;39.53;33.90;46.25;;
61095;Laerm;20450;49.074;9.158;2023-03-01T01:24:57;38.52;33.90;50.75;;
61095;Laerm;20450;49.074;9.158;2023-03-01T01:27:24;37.90;33.90;40.62;;
61095;Laerm;20450;49.074;9.158;2023-03-01T01:29:53;37.96;34.31;40.71;;
61095;Laerm;20450;49.074;9.158;2023-03-01T01:32:20;37.78;33.90;40.33;;
61095;Laerm;20450;49.074;9.158;2023-03-01T01:34:47;37.89;33.90;40.80;;
61095;Laerm;20450;49.074;9.158;2023-03-01T01:37:14;37.98;33.90;41.22;;
61095;Laerm;20450;49.074;9.158;2023-03-01T01:39:41;37.93;33.90;41.89;;
61095;Laerm;20450;49.074;9.158;2023-03-01T01:42:15;38.24;34.69;41.68;;
61095;Laerm;20450;49.074;9.158;2023-03-01T01:44:45;38.94;34.31;43.68;;
61095;Laerm;20450;49.074;9.158;2023-03-01T01:47:16;38.42;33.90;43.37;;
61095;Laerm;20450;49.074;9.158;2023-03-01T01:49:47;38.07;33.90;40.89;;
61095;Laerm;20450;49.074;9.158;2023-03-01T01:52:20;38.08;33.44;42.09;;
61095;Laerm;20450;49.074;9.158;2023-03-01T01:54:53;38.45;33.90;43.49;;
61095;Laerm;20450;49.074;9.158;2023-03-01T01:57:31;38.04;34.31;41.68;;
61095;Laerm;20450;49.074;9.158;2023-03-01T02:00:05;38.10;34.31;41.82;;
61095;Laerm;20450;49.074;9.158;2023-03-01T02:02:41;37.93;34.31;42.59;;
61095;Laerm;20450;49.074;9.158;2023-03-01T02:05:19;38.00;32.35;41.75;;
61095;Laerm;20450;49.074;9.158;2023-03-01T02:07:48;38.10;34.31;41.14;;
61095;Laerm;20450;49.074;9.158;2023-03-01T02:10:20;37.94;34.31;40.62;;
61095;Laerm;20450;49.074;9.158;2023-03-01T02:12:49;38.69;34.31;43.44;;
61095;Laerm;20450;49.074;9.158;2023-03-01T02:15:16;37.79;33.44;40.45;;
61095;Laerm;20450;49.074;9.158;2023-03-01T02:17:43;37.96;33.44;40.53;;
61095;Laerm;20450;49.074;9.158;2023-03-01T02:20:23;38.12;34.31;41.06;;
61095;Laerm;20450;49.074;9.158;2023-03-01T02:22:57;38.20;34.69;42.88;;
61095;Laerm;20450;49.074;9.158;2023-03-01T02:25:37;38.34;33.90;41.46;;
61095;Laerm;20450;49.074;9.158;2023-03-01T02:28:20;38.11;34.31;40.89;;
61095;Laerm;20450;49.074;9.158;2023-03-01T02:30:50;38.19;33.44;41.22;;
61095;Laerm;20450;49.074;9.158;2023-03-01T02:33:17;37.96;33.90;40.80;;
61095;Laerm;20450;49.074;9.158;2023-03-01T02:35:44;38.62;33.90;43.00;;
61095;Laerm;20450;49.074;9.158;2023-03-01T02:38:11;39.05;34.31;44.23;;
61095;Laerm;20450;49.074;9.158;2023-03-01T02:40:40;38.47;34.69;42.03;;
61095;Laerm;20450;49.074;9.158;2023-03-01T02:43:33;38.49;33.90;42.29;;
61095;Laerm;20450;49.074;9.158;2023-03-01T02:46:07;38.05;33.44;41.30;;
61095;Laerm;20450;49.074;9.158;2023-03-01T02:48:43;38.87;34.31;44.35;;
61095;Laerm;20450;49.074;9.158;2023-03-01T02:51:26;38.03;34.31;40.62;;
61095;Laerm;20450;49.074;9.158;2023-03-01T02:54:15;38.07;34.31;42.29;;
61095;Laerm;20450;49.074;9.158;2023-03-01T02:56:45;38.07;34.31;41.53;;
61095;Laerm;20450;49.074;9.158;2023-03-01T02:59:16;38.14;33.44;41.89;;
61095;Laerm;20450;49.074;9.158;2023-03-01T03:01:44;38.06;34.31;40.71;;
61095;Laerm;20450;49.074;9.158;2023-03-01T03:04:16;38.69;34.31;42.82;;
61095;Laerm;20450;49.074;9.158;2023-03-01T03:06:48;38.47;34.69;41.46;;
61095;Laerm;20450;49.074;9.158;2023-03-01T03:09:17;38.93;34.69;44.35;;
61095;Laerm;20450;49.074;9.158;2023-03-01T03:11:45;38.30;34.31;40.98;;
61095;Laerm;20450;49.074;9.158;2023-03-01T03:14:16;38.90;35.04;42.59;;
61095;Laerm;20450;49.074;9.158;2023-03-01T03:16:48;38.49;34.31;41.30;;
61095;Laerm;20450;49.074;9.158;2023-03-01T03:19:16;39.16;34.31;45.42;;
61095;Laerm;20450;49.074;9.158;2023-03-01T03:21:43;38.32;32.93;41.14;;
61095;Laerm;20450;49.074;9.158;2023-03-01T03:24:10;38.31;35.04;40.89;;
61095;Laerm;20450;49.074;9.158;2023-03-01T03:26:37;38.62;33.90;41.61;;
61095;Laerm;20450;49.074;9.158;2023-03-01T03:29:03;38.90;35.36;42.35;;
61095;Laerm;20450;49.074;9.158;2023-03-01T03:31:32;38.69;35.04;41.89;;
61095;Laerm;20450;49.074;9.158;2023-03-01T03:33:59;38.77;34.69;43.77;;
61095;Laerm;20450;49.074;9.158;2023-03-01T03:36:26;39.52;35.36;43.94;;
61095;Laerm;20450;49.074;9.158;2023-03-01T03:38:53;38.97;35.04;42.29;;
61095;Laerm;20450;49.074;9.158;2023-03-01T03:41:20;39.33;35.36;44.35;;
61095;Laerm;20450;49.074;9.158;2023-03-01T03:43:47;39.19;34.69;43.34;;
61095;Laerm;20450;49.074;9.158;2023-03-01T03:46:14;39.28;35.04;42.29;;
61095;Laerm;20450;49.074;9.158;2023-03-01T03:48:44;39.38;34.69;43.19;;
61095;Laerm;20450;49.074;9.158;2023-03-01T03:51:14;38.78;34.69;41.82;;
61095;Laerm;20450;49.074;9.158;2023-03-01T03:53:42;39.05;35.36;43.49;;
61095;Laerm;20450;49.074;9.158;2023-03-01T03:56:09;39.57;35.36;43.54;;
61095;Laerm;20450;49.074;9.158;2023-03-01T03:58:37;39.32;35.66;41.96;;
61095;Laerm;20450;49.074;9.158;2023-03-01T04:01:04;39.56;35.36;43.14;;
61095;Laerm;20450;49.074;9.158;2023-03-01T04:03:34;39.37;34.31;42.16;;
61095;Laerm;20450;49.074;9.158;2023-03-01T04:06:03;39.50;35.94;43.63;;
61095;Laerm;20450;49.074;9.158;2023-03-01T04:08:31;39.92;35.04;43.77;;
61095;Laerm;20450;49.074;9.158;2023-03-01T04:11:01;39.99;35.66;44.90;;
61095;Laerm;20450;49.074;9.158;2023-03-01T04:13:28;40.31;35.66;45.60;;
61095;Laerm;20450;49.074;9.158;2023-03-01T04:15:55;40.24;36.91;44.19;;
61095;Laerm;20450;49.074;9.158;2023-03-01T04:18:23;39.91;35.66;42.71;;
61095;Laerm;20450;49.074;9.158;2023-03-01T04:20:51;40.35;35.94;43.68;;
61095;Laerm;20450;49.074;9.158;2023-03-01T04:23:21;41.07;37.32;50.75;;
61095;Laerm;20450;49.074;9.158;2023-03-01T04:25:51;39.86;36.20;43.14;;
61095;Laerm;20450;49.074;9.158;2023-03-01T04:28:18;40.49;35.94;44.39;;
61095;Laerm;20450;49.074;9.158;2023-03-01T04:30:46;40.10;36.45;44.51;;
61095;Laerm;20450;49.074;9.158;2023-03-01T04:33:13;40.28;36.69;45.94;;
61095;Laerm;20450;49.074;9.158;2023-03-01T04:35:40;40.59;36.45;43.54;;
61095;Laerm;20450;49.074;9.158;2023-03-01T04:38:08;40.71;36.91;45.54;;
61095;Laerm;20450;49.074;9.158;2023-03-01T04:40:37;40.78;36.91;45.39;;
61095;Laerm;20450;49.074;9.158;2023-03-01T04:43:04;41.48;36.91;44.80;;
61095;Laerm;20450;49.074;9.158;2023-03-01T04:45:33;40.53;36.20;44.87;;
61095;Laerm;20450;49.074;9.158;2023-03-01T04:48:00;40.34;37.12;43.19;;
61095;Laerm;20450;49.074;9.158;2023-03-01T04:50:28;40.77;37.17;51.86;;
61095;Laerm;20450;49.074;9.158;2023-03-01T04:52:55;40.72;36.45;46.28;;
61095;Laerm;20450;49.074;9.158;2023-03-01T04:55:22;40.21;36.10;44.15;;
61095;Laerm;20450;49.074;9.158;2023-03-01T04:57:51;40.27;36.45;43.72;;
61095;Laerm;20450;49.074;9.158;2023-03-01T05:00:18;40.33;36.91;43.63;;
61095;Laerm;20450;49.074;9.158;2023-03-01T05:02:48;41.02;37.12;49.15;;
61095;Laerm;20450;49.074;9.158;2023-03-01T05:05:15;40.67;37.70;43.49;;
61095;Laerm;20450;49.074;9.158;2023-03-01T05:07:42;40.36;36.91;43.86;;
61095;Laerm;20450;49.074;9.158;2023-03-01T05:10:10;40.82;36.91;45.66;;
61095;Laerm;20450;49.074;9.158;2023-03-01T05:12:37;41.01;37.32;54.50;;
61095;Laerm;20450;49.074;9.158;2023-03-01T05:15:07;40.99;37.32;45.23;;
61095;Laerm;20450;49.074;9.158;2023-03-01T05:17:34;41.07;37.52;43.81;;
61095;Laerm;20450;49.074;9.158;2023-03-01T05:20:01;41.45;37.70;51.37;;
61095;Laerm;20450;49.074;9.158;2023-03-01T05:22:28;42.59;39.70;51.13;;
61095;Laerm;20450;49.074;9.158;2023-03-01T05:24:55;41.76;38.21;55.93;;
61095;Laerm;20450;49.074;9.158;2023-03-01T05:27:22;41.62;38.05;59.52;;
61095;Laerm;20450;49.074;9.158;2023-03-01T05:29:48;41.75;38.37;50.44;;
61095;Laerm;20450;49.074;9.158;2023-03-01T05:32:17;41.46;38.67;46.25;;
61095;Laerm;20450;49.074;9.158;2023-03-01T05:34:44;42.07;38.52;46.62;;
61095;Laerm;20450;49.074;9.158;2023-03-01T05:37:11;41.54;38.21;46.05;;
61095;Laerm;20450;49.074;9.158;2023-03-01T05:39:39;41.16;37.70;46.73;;
61095;Laerm;20450;49.074;9.158;2023-03-01T05:42:06;41.06;37.52;43.99;;
61095;Laerm;20450;49.074;9.158;2023-03-01T05:44:33;41.61;37.17;45.99;;
61095;Laerm;20450;49.074;9.158;2023-03-01T05:46:59;42.76;39.92;46.57;;
61095;Laerm;20450;49.074;9.158;2023-03-01T05:49:28;42.46;38.52;52.31;;
61095;Laerm;20450;49.074;9.158;2023-03-01T05:51:56;41.66;38.37;46.82;;
61095;Laerm;20450;49.074;9.158;2023-03-01T05:54:23;41.65;38.37;50.25;;
61095;Laerm;20450;49.074;9.158;2023-03-01T05:56:50;41.70;38.37;46.33;;
61095;Laerm;20450;49.074;9.158;2023-03-01T05:59:17;41.41;37.52;46.69;;
61095;Laerm;20450;49.074;9.158;2023-03-01T06:01:43;41.47;37.88;45.75;;
61095;Laerm;20450;49.074;9.158;2023-03-01T06:04:10;41.65;38.95;46.02;;
61095;Laerm;20450;49.074;9.158;2023-03-01T06:06:39;41.61;38.67;55.38;;
61095;Laerm;20450;49.074;9.158;2023-03-01T06:09:07;42.00;38.37;52.60;;
61095;Laerm;20450;49.074;9.158;2023-03-01T06:11:34;41.86;37.52;49.62;;
61095;Laerm;20450;49.074;9.158;2023-03-01T06:14:02;41.69;37.32;53.90;;
61095;Laerm;20450;49.074;9.158;2023-03-01T06:16:29;40.98;37.52;44.73;;
61095;Laerm;20450;49.074;9.158;2023-03-01T06:18:57;40.91;37.70;45.86;;
61095;Laerm;20450;49.074;9.158;2023-03-01T06:21:24;41.61;37.87;45.80;;
61095;Laerm;20450;49.074;9.158;2023-03-01T06:23:52;41.41;37.32;55.23;;
61095;Laerm;20450;49.074;9.158;2023-03-01T06:26:19;42.21;38.37;46.73;;
61095;Laerm;20450;49.074;9.158;2023-03-01T06:28:46;41.99;37.88;45.89;;
61095;Laerm;20450;49.074;9.158;2023-03-01T06:31:13;41.94;38.21;45.97;;
61095;Laerm;20450;49.074;9.158;2023-03-01T06:33:40;42.17;37.88;58.56;;
61095;Laerm;20450;49.074;9.158;2023-03-01T06:36:08;41.86;38.81;45.54;;
61095;Laerm;20450;49.074;9.158;2023-03-01T06:38:36;41.85;38.52;45.91;;
61095;Laerm;20450;49.074;9.158;2023-03-01T06:41:04;42.02;38.37;47.18;;
61095;Laerm;20450;49.074;9.158;2023-03-01T06:43:31;41.87;39.21;47.59;;
61095;Laerm;20450;49.074;9.158;2023-03-01T06:45:58;42.48;38.37;57.04;;
61095;Laerm;20450;49.074;9.158;2023-03-01T06:48:25;42.02;38.67;49.82;;
61095;Laerm;20450;49.074;9.158;2023-03-01T06:50:52;42.02;38.81;49.73;;
61095;Laerm;20450;49.074;9.158;2023-03-01T06:53:19;42.00;38.67;48.61;;
61095;Laerm;20450;49.074;9.158;2023-03-01T06:55:46;41.86;39.46;47.52;;
61095;Laerm;20450;49.074;9.158;2023-03-01T06:58:14;42.64;39.81;50.19;;
61095;Laerm;20450;49.074;9.158;2023-03-01T07:00:41;42.65;39.92;52.35;;
61095;Laerm;20450;49.074;9.158;2023-03-01T07:03:08;42.39;40.13;48.57;;
61095;Laerm;20450;49.074;9.158;2023-03-01T07:05:35;42.83;40.71;49.73;;
61095;Laerm;20450;49.074;9.158;2023-03-01T07:08:02;42.40;39.92;47.46;;
61095;Laerm;20450;49.074;9.158;2023-03-01T07:10:31;42.19;39.92;47.90;;
61095;Laerm;20450;49.074;9.158;2023-03-01T07:12:58;42.70;40.43;47.02;;
61095;Laerm;20450;49.074;9.158;2023-03-01T07:15:27;42.78;40.53;46.66;;
61095;Laerm;20450;49.074;9.158;2023-03-01T07:17:56;43.31;40.80;53.79;;
61095;Laerm;20450;49.074;9.158;2023-03-01T07:20:23;42.76;40.43;47.55;;
61095;Laerm;20450;49.074;9.158;2023-03-01T07:22:50;43.47;40.53;50.78;;
61095;Laerm;20450;49.074;9.158;2023-03-01T07:25:17;43.26;40.98;49.81;;
61095;Laerm;20450;49.074;9.158;2023-03-01T07:27:44;43.14;39.99;48.87;;
61095;Laerm;20450;49.074;9.158;2023-03-01T07:30:17;43.09;40.23;50.94;;
61095;Laerm;20450;49.074;9.158;2023-03-01T07:32:45;42.95;39.81;50.79;;
61095;Laerm;20450;49.074;9.158;2023-03-01T07:35:13;42.69;40.13;57.90;;
61095;Laerm;20450;49.074;9.158;2023-03-01T07:37:40;43.26;40.71;47.28;;
61095;Laerm;20450;49.074;9.158;2023-03-01T07:40:08;43.27;40.43;50.68;;
61095;Laerm;20450;49.074;9.158;2023-03-01T07:42:36;43.40;40.71;56.59;;
61095;Laerm;20450;49.074;9.158;2023-03-01T07:45:06;43.47;40.43;52.33;;
61095;Laerm;20450;49.074;9.158;2023-03-01T07:47:33;43.32;40.53;51.56;;
61095;Laerm;20450;49.074;9.158;2023-03-01T07:50:02;43.56;40.89;51.80;;
61095;Laerm;20450;49.074;9.158;2023-03-01T07:52:30;44.00;40.80;52.33;;
61095;Laerm;20450;49.074;9.158;2023-03-01T07:54:59;43.96;39.58;60.10;;
61095;Laerm;20450;49.074;9.158;2023-03-01T07:57:26;43.12;39.46;53.69;;
61095;Laerm;20450;49.074;9.158;2023-03-01T07:59:53;43.43;40.53;50.96;;
61095;Laerm;20450;49.074;9.158;2023-03-01T08:02:20;44.42;40.71;59.31;;
61095;Laerm;20450;49.074;9.158;2023-03-01T08:04:46;44.19;40.13;58.08;;
61095;Laerm;20450;49.074;9.158;2023-03-01T08:07:15;43.97;40.23;58.05;;
61095;Laerm;20450;49.074;9.158;2023-03-01T08:09:41;44.60;40.13;61.76;;
61095;Laerm;20450;49.074;9.158;2023-03-01T08:12:09;43.61;40.03;54.33;;
61095;Laerm;20450;49.074;9.158;2023-03-01T08:14:36;44.45;40.71;57.77;;
61095;Laerm;20450;49.074;9.158;2023-03-01T08:17:05;44.97;40.80;60.99;;
61095;Laerm;20450;49.074;9.158;2023-03-01T08:19:32;45.03;40.43;61.02;;
61095;Laerm;20450;49.074;9.158;2023-03-01T08:21:59;43.97;40.43;55.30;;
61095;Laerm;20450;49.074;9.158;2023-03-01T08:24:28;44.10;40.33;56.68;;
61095;Laerm;20450;49.074;9.158;2023-03-01T08:26:55;44.44;40.23;57.24;;
61095;Laerm;20450;49.074;9.158;2023-03-01T08:29:23;43.30;40.43;50.69;;
61095;Laerm;20450;49.074;9.158;2023-03-01T08:31:50;46.68;40.03;66.64;;
61095;Laerm;20450;49.074;9.158;2023-03-01T08:34:18;43.31;39.81;53.96;;
61095;Laerm;20450;49.074;9.158;2023-03-01T08:36:46;46.11;39.92;62.78;;
61095;Laerm;20450;49.074;9.158;2023-03-01T08:39:16;44.76;40.13;57.75;;
61095;Laerm;20450;49.074;9.158;2023-03-01T08:41:45;44.40;41.14;56.92;;
61095;Laerm;20450;49.074;9.158;2023-03-01T08:44:15;44.62;40.13;61.73;;
61095;Laerm;20450;49.074;9.158;2023-03-01T08:46:45;43.01;39.46;53.29;;
61095;Laerm;20450;49.074;9.158;2023-03-01T08:49:15;43.01;39.08;52.52;;
61095;Laerm;20450;49.074;9.158;2023-03-01T08:51:44;42.68;39.34;54.34;;
61095;Laerm;20450;49.074;9.158;2023-03-01T08:54:14;42.70;38.95;49.15;;
61095;Laerm;20450;49.074;9.158;2023-03-01T08:56:42;42.62;38.37;52.44;;
61095;Laerm;20450;49.074;9.158;2023-03-01T08:59:13;43.01;39.21;54.81;;
61095;Laerm;20450;49.074;9.158;2023-03-01T09:01:41;43.34;39.46;51.75;;
61095;Laerm;20450;49.074;9.158;2023-03-01T09:04:08;43.89;40.13;56.13;;
61095;Laerm;20450;49.074;9.158;2023-03-01T09:06:35;43.52;38.74;57.64;;
61095;Laerm;20450;49.074;9.158;2023-03-01T09:09:03;44.76;39.92;59.27;;
61095;Laerm;20450;49.074;9.158;2023-03-01T09:11:31;43.97;41.06;55.25;;
61095;Laerm;20450;49.074;9.158;2023-03-01T09:13:58;44.14;40.13;56.70;;
61095;Laerm;20450;49.074;9.158;2023-03-01T09:16:28;43.91;40.23;57.34;;
61095;Laerm;20450;49.074;9.158;2023-03-01T09:18:58;43.96;40.33;56.29;;
61095;Laerm;20450;49.074;9.158;2023-03-01T09:21:25;44.59;41.46;57.34;;
61095;Laerm;20450;49.074;9.158;2023-03-01T09:24:13;44.72;40.23;59.35;;
61095;Laerm;20450;49.074;9.158;2023-03-01T09:26:42;44.11;40.23;62.79;;
61095;Laerm;20450;49.074;9.158;2023-03-01T09:29:09;43.39;40.98;53.11;;
61095;Laerm;20450;49.074;9.158;2023-03-01T09:31:37;43.26;40.23;52.97;;
61095;Laerm;20450;49.074;9.158;2023-03-01T09:34:07;43.17;39.81;51.02;;
61095;Laerm;20450;49.074;9.158;2023-03-01T09:36:36;43.16;39.81;50.26;;
61095;Laerm;20450;49.074;9.158;2023-03-01T09:39:05;43.12;40.43;54.43;;
61095;Laerm;20450;49.074;9.158;2023-03-01T09:41:50;43.28;40.53;49.04;;
61095;Laerm;20450;49.074;9.158;2023-03-01T09:44:32;43.24;39.08;55.07;;
61095;Laerm;20450;49.074;9.158;2023-03-01T09:47:12;44.46;40.33;63.02;;
61095;Laerm;20450;49.074;9.158;2023-03-01T09:49:51;44.35;39.81;58.11;;
61095;Laerm;20450;49.074;9.158;2023-03-01T09:52:30;43.46;40.71;52.78;;
61095;Laerm;20450;49.074;9.158;2023-03-01T09:55:08;43.68;39.34;56.27;;
61095;Laerm;20450;49.074;9.158;2023-03-01T09:57:47;42.98;39.58;54.62;;
61095;Laerm;20450;49.074;9.158;2023-03-01T10:00:29;43.28;39.21;53.43;;
61095;Laerm;20450;49.074;9.158;2023-03-01T10:03:14;43.57;39.58;52.79;;
61095;Laerm;20450;49.074;9.158;2023-03-01T10:05:57;42.34;39.58;45.42;;
61095;Laerm;20450;49.074;9.158;2023-03-01T10:08:41;43.20;40.43;52.71;;
61095;Laerm;20450;49.074;9.158;2023-03-01T10:11:47;44.92;39.46;70.43;;
61095;Laerm;20450;49.074;9.158;2023-03-01T10:14:31;45.17;40.03;67.04;;
61095;Laerm;20450;49.074;9.158;2023-03-01T10:17:08;44.90;39.70;67.43;;
61095;Laerm;20450;49.074;9.158;2023-03-01T10:19:41;47.24;41.53;76.15;;
61095;Laerm;20450;49.074;9.158;2023-03-01T10:22:16;43.18;40.53;53.69;;
61095;Laerm;20450;49.074;9.158;2023-03-01T10:24:44;42.63;39.34;52.53;;
61095;Laerm;20450;49.074;9.158;2023-03-01T10:27:19;43.26;40.03;56.03;;
61095;Laerm;20450;49.074;9.158;2023-03-01T10:29:56;42.45;37.52;49.00;;
61095;Laerm;20450;49.074;9.158;2023-03-01T10:32:26;43.67;39.81;52.34;;
61095;Laerm;20450;49.074;9.158;2023-03-01T10:34:58;43.64;40.18;57.12;;
61095;Laerm;20450;49.074;9.158;2023-03-01T10:38:05;43.75;40.43;53.50;;
61095;Laerm;20450;49.074;9.158;2023-03-01T10:41:13;43.18;39.34;53.27;;
61095;Laerm;20450;49.074;9.158;2023-03-01T10:43:46;43.30;39.70;52.98;;
61095;Laerm;20450;49.074;9.158;2023-03-01T10:46:26;42.97;39.58;57.03;;
61095;Laerm;20450;49.074;9.158;2023-03-01T10:49:14;43.71;39.81;55.23;;
61095;Laerm;20450;49.074;9.158;2023-03-01T10:51:46;42.12;39.46;46.40;;
61095;Laerm;20450;49.074;9.158;2023-03-01T10:54:20;42.55;39.21;54.22;;
61095;Laerm;20450;49.074;9.158;2023-03-01T10:56:51;42.22;38.81;45.11;;
61095;Laerm;20450;49.074;9.158;2023-03-01T10:59:27;42.90;39.21;55.73;;
61095;Laerm;20450;49.074;9.158;2023-03-01T11:02:16;43.56;38.95;54.20;;
61095;Laerm;20450;49.074;9.158;2023-03-01T11:05:00;42.44;39.46;55.29;;
61095;Laerm;20450;49.074;9.158;2023-03-01T11:07:30;42.82;38.95;49.95;;
61095;Laerm;20450;49.074;9.158;2023-03-01T11:09:57;42.84;39.81;51.08;;
61095;Laerm;20450;49.074;9.158;2023-03-01T11:12:24;44.19;39.08;57.68;;
61095;Laerm;20450;49.074;9.158;2023-03-01T11:14:54;43.57;39.34;51.82;;
61095;Laerm;20450;49.074;9.158;2023-03-01T11:17:28;49.34;41.38;66.78;;
61095;Laerm;20450;49.074;9.158;2023-03-01T11:20:02;43.30;39.21;55.13;;
61095;Laerm;20450;49.074;9.158;2023-03-01T11:22:35;43.69;39.46;58.58;;
61095;Laerm;20450;49.074;9.158;2023-03-01T11:25:14;43.54;39.08;56.08;;
61095;Laerm;20450;49.074;9.158;2023-03-01T11:27:45;44.55;40.71;60.00;;
61095;Laerm;20450;49.074;9.158;2023-03-01T11:30:20;46.96;38.95;63.52;;
61095;Laerm;20450;49.074;9.158;2023-03-01T11:33:03;42.66;39.08;46.62;;
61095;Laerm;20450;49.074;9.158;2023-03-01T11:35:34;42.66;39.08;52.53;;
61095;Laerm;20450;49.074;9.158;2023-03-01T11:38:16;44.00;39.81;56.80;;
61095;Laerm;20450;49.074;9.158;2023-03-01T11:40:54;42.95;38.67;55.13;;
61095;Laerm;20450;49.074;9.158;2023-03-01T11:43:33;43.32;39.34;51.84;;
61095;Laerm;20450;49.074;9.158;2023-03-01T11:46:36;46.93;39.81;64.41;;
61095;Laerm;20450;49.074;9.158;2023-03-01T11:49:32;43.49;39.34;57.98;;
61095;Laerm;20450;49.074;9.158;2023-03-01T11:52:18;43.70;40.13;54.22;;
61095;Laerm;20450;49.074;9.158;2023-03-01T11:55:17;43.09;39.46;56.97;;
61095;Laerm;20450;49.074;9.158;2023-03-01T11:58:21;45.54;40.23;64.12;;
61095;Laerm;20450;49.074;9.158;2023-03-01T12:01:12;43.01;38.95;53.42;;
61095;Laerm;20450;49.074;9.158;2023-03-01T12:04:09;43.76;39.92;59.41;;
61095;Laerm;20450;49.074;9.158;2023-03-01T12:06:54;43.07;40.03;54.10;;
61095;Laerm;20450;49.074;9.158;2023-03-01T12:09:38;43.37;40.23;56.61;;
61095;Laerm;20450;49.074;9.158;2023-03-01T12:12:29;44.61;38.95;62.88;;
61095;Laerm;20450;49.074;9.158;2023-03-01T12:18:37;43.19;39.70;50.62;;
61095;Laerm;20450;49.074;9.158;2023-03-01T12:21:19;43.18;39.70;50.13;;
61095;Laerm;20450;49.074;9.158;2023-03-01T12:24:31;45.04;39.21;64.38;;
61095;Laerm;20450;49.074;9.158;2023-03-01T12:27:20;44.00;40.98;54.08;;
61095;Laerm;20450;49.074;9.158;2023-03-01T12:30:02;44.69;39.46;64.35;;
61095;Laerm;20450;49.074;9.158;2023-03-01T12:32:47;43.96;39.81;61.61;;
61095;Laerm;20450;49.074;9.158;2023-03-01T12:35:57;44.19;38.95;61.45;;
61095;Laerm;20450;49.074;9.158;2023-03-01T12:38:41;44.09;39.08;58.44;;
61095;Laerm;20450;49.074;9.158;2023-03-01T12:41:38;45.41;40.13;59.17;;
61095;Laerm;20450;49.074;9.158;2023-03-01T12:44:27;43.31;39.92;53.80;;
61095;Laerm;20450;49.074;9.158;2023-03-01T12:47:14;43.66;39.81;52.81;;
61095;Laerm;20450;49.074;9.158;2023-03-01T12:49:52;43.59;37.70;56.97;;
61095;Laerm;20450;49.074;9.158;2023-03-01T12:52:35;43.70;39.08;57.55;;
61095;Laerm;20450;49.074;9.158;2023-03-01T12:55:25;44.50;39.92;62.25;;
61095;Laerm;20450;49.074;9.158;2023-03-01T12:58:06;43.17;39.08;52.75;;
61095;Laerm;20450;49.074;9.158;2023-03-01T13:00:53;43.07;39.58;54.25;;
61095;Laerm;20450;49.074;9.158;2023-03-01T13:03:55;43.00;39.08;53.49;;
61095;Laerm;20450;49.074;9.158;2023-03-01T13:06:35;44.30;40.03;57.49;;
61095;Laerm;20450;49.074;9.158;2023-03-01T13:09:23;43.69;40.03;53.45;;
61095;Laerm;20450;49.074;9.158;2023-03-01T13:11:54;43.74;40.98;55.25;;
61095;Laerm;20450;49.074;9.158;2023-03-01T13:14:48;43.92;39.92;58.89;;
61095;Laerm;20450;49.074;9.158;2023-03-01T13:17:41;46.93;39.21;66.72;;
61095;Laerm;20450;49.074;9.158;2023-03-01T13:20:19;43.04;38.05;54.53;;
61095;Laerm;20450;49.074;9.158;2023-03-01T13:22:48;44.99;39.46;59.30;;
61095;Laerm;20450;49.074;9.158;2023-03-01T13:25:27;46.04;40.03;64.56;;
61095;Laerm;20450;49.074;9.158;2023-03-01T13:28:42;43.33;37.12;57.24;;
61095;Laerm;20450;49.074;9.158;2023-03-01T13:31:59;42.69;36.69;48.48;;
61095;Laerm;20450;49.074;9.158;2023-03-01T13:34:51;45.04;38.95;60.24;;
61095;Laerm;20450;49.074;9.158;2023-03-01T13:37:51;43.50;39.92;56.05;;
61095;Laerm;20450;49.074;9.158;2023-03-01T13:40:59;43.68;40.03;57.91;;
61095;Laerm;20450;49.074;9.158;2023-03-01T13:43:33;46.19;39.34;66.48;;
61095;Laerm;20450;49.074;9.158;2023-03-01T13:46:10;43.46;40.13;55.93;;
61095;Laerm;20450;49.074;9.158;2023-03-01T13:48:39;43.04;39.21;57.66;;
61095;Laerm;20450;49.074;9.158;2023-03-01T13:51:11;43.93;38.52;64.04;;
61095;Laerm;20450;49.074;9.158;2023-03-01T13:53:42;43.65;40.71;53.57;;
61095;Laerm;20450;49.074;9.158;2023-03-01T13:56:15;43.87;40.62;58.09;;
61095;Laerm;20450;49.074;9.158;2023-03-01T13:58:53;44.33;40.33;64.35;;
61095;Laerm;20450;49.074;9.158;2023-03-01T14:01:24;43.27;40.13;51.76;;
61095;Laerm;20450;49.074;9.158;2023-03-01T14:03:52;47.26;40.80;67.02;;
61095;Laerm;20450;49.074;9.158;2023-03-01T14:06:26;51.87;40.71;69.22;;
61095;Laerm;20450;49.074;9.158;2023-03-01T14:09:05;47.96;39.92;66.61;;
61095;Laerm;20450;49.074;9.158;2023-03-01T14:11:59;45.32;40.89;62.91;;
61095;Laerm;20450;49.074;9.158;2023-03-01T14:14:40;47.12;40.80;66.41;;
61095;Laerm;20450;49.074;9.158;2023-03-01T14:17:37;43.98;40.62;55.46;;
61095;Laerm;20450;49.074;9.158;2023-03-01T14:20:17;43.74;40.43;55.45;;